sensor_id;sensor_type;location;lat;lon;timestamp;pressure;altitude;pressure_sealevel;temperature;humidity
47913;BME280;33676;51.006;17.180;2024-02-21T00:02:20;100876.71;;;6.38;100.00
47913;BME280;33676;51.006;17.180;2024-02-21T00:04:49;100873.04;;;6.39;100.00
47913;BME280;33676;51.006;17.180;2024-02-21T00:07:17;100870.27;;;6.39;100.00
47913;BME280;33676;51.006;17.180;2024-02-21T00:09:46;100876.31;;;6.39;100.00
47913;BME280;33676;51.006;17.180;2024-02-21T00:12:15;100876.14;;;6.40;100.00
47913;BME280;33676;51.006;17.180;2024-02-21T00:14:43;100873.52;;;6.40;100.00
47913;BME280;33676;51.006;17.180;2024-02-21T00:17:12;100874.34;;;6.41;100.00
47913;BME280;33676;51.006;17.180;2024-02-21T00:19:40;100872.55;;;6.42;100.00
47913;BME280;33676;51.006;17.180;2024-02-21T00:22:09;100871.67;;;6.42;100.00
47913;BME280;33676;51.006;17.180;2024-02-21T00:24:38;100868.15;;;6.43;100.00
47913;BME280;33676;51.006;17.180;2024-02-21T00:27:06;100864.16;;;6.43;100.00
47913;BME280;33676;51.006;17.180;2024-02-21T00:29:35;100868.41;;;6.45;100.00
47913;BME280;33676;51.006;17.180;2024-02-21T00:32:04;100862.51;;;6.45;100.00
47913;BME280;33676;51.006;17.180;2024-02-21T00:34:32;100861.79;;;6.45;100.00
47913;BME280;33676;51.006;17.180;2024-02-21T00:37:01;100857.39;;;6.46;100.00
47913;BME280;33676;51.006;17.180;2024-02-21T00:39:30;100859.75;;;6.48;100.00
47913;BME280;33676;51.006;17.180;2024-02-21T00:41:58;100854.65;;;6.49;100.00
47913;BME280;33676;51.006;17.180;2024-02-21T00:44:27;100848.58;;;6.49;100.00
47913;BME280;33676;51.006;17.180;2024-02-21T00:46:55;100844.21;;;6.49;100.00
47913;BME280;33676;51.006;17.180;2024-02-21T00:49:24;100844.92;;;6.49;100.00
47913;BME280;33676;51.006;17.180;2024-02-21T00:51:52;100848.34;;;6.50;100.00
47913;BME280;33676;51.006;17.180;2024-02-21T00:54:21;100848.10;;;6.51;100.00
47913;BME280;33676;51.006;17.180;2024-02-21T00:56:51;100845.46;;;6.52;100.00
47913;BME280;33676;51.006;17.180;2024-02-21T00:59:20;100843.66;;;6.53;100.00
47913;BME280;33676;51.006;17.180;2024-02-21T01:01:48;100838.25;;;6.53;100.00
47913;BME280;33676;51.006;17.180;2024-02-21T01:04:17;100834.44;;;6.53;100.00
47913;BME280;33676;51.006;17.180;2024-02-21T01:06:46;100834.05;;;6.54;100.00
47913;BME280;33676;51.006;17.180;2024-02-21T01:09:14;100829.02;;;6.54;100.00
47913;BME280;33676;51.006;17.180;2024-02-21T01:11:43;100826.55;;;6.55;100.00
47913;BME280;33676;51.006;17.180;2024-02-21T01:14:12;100825.23;;;6.57;100.00
47913;BME280;33676;51.006;17.180;2024-02-21T01:16:41;100822.91;;;6.58;100.00
47913;BME280;33676;51.006;17.180;2024-02-21T01:19:10;100822.32;;;6.59;100.00
47913;BME280;33676;51.006;17.180;2024-02-21T01:21:38;100817.96;;;6.59;100.00
47913;BME280;33676;51.006;17.180;2024-02-21T01:24:07;100815.66;;;6.60;100.00
47913;BME280;33676;51.006;17.180;2024-02-21T01:26:35;100820.27;;;6.62;100.00
47913;BME280;33676;51.006;17.180;2024-02-21T01:29:04;100817.75;;;6.63;100.00
47913;BME280;33676;51.006;17.180;2024-02-21T01:31:33;100812.98;;;6.65;100.00
47913;BME280;33676;51.006;17.180;2024-02-21T01:34:01;100813.21;;;6.68;100.00
47913;BME280;33676;51.006;17.180;2024-02-21T01:36:30;100811.38;;;6.69;100.00
47913;BME280;33676;51.006;17.180;2024-02-21T01:38:58;100809.73;;;6.71;100.00
47913;BME280;33676;51.006;17.180;2024-02-21T01:41:30;100806.16;;;6.73;100.00
47913;BME280;33676;51.006;17.180;2024-02-21T01:43:58;100802.05;;;6.75;100.00
47913;BME280;33676;51.006;17.180;2024-02-21T01:46:27;100799.83;;;6.77;100.00
47913;BME280;33676;51.006;17.180;2024-02-21T01:48:58;100796.13;;;6.78;100.00
47913;BME280;33676;51.006;17.180;2024-02-21T01:51:28;100796.14;;;6.77;100.00
47913;BME280;33676;51.006;17.180;2024-02-21T01:53:57;100790.73;;;6.78;100.00
47913;BME280;33676;51.006;17.180;2024-02-21T01:56:26;100790.38;;;6.78;100.00
47913;BME280;33676;51.006;17.180;2024-02-21T01:58:55;100786.08;;;6.77;100.00
47913;BME280;33676;51.006;17.180;2024-02-21T02:01:24;100783.13;;;6.77;100.00
47913;BME280;33676;51.006;17.180;2024-02-21T02:03:54;100780.34;;;6.77;100.00
47913;BME280;33676;51.006;17.180;2024-02-21T02:06:24;100778.26;;;6.77;100.00
47913;BME280;33676;51.006;17.180;2024-02-21T02:08:53;100778.22;;;6.78;100.00
47913;BME280;33676;51.006;17.180;2024-02-21T02:11:23;100774.14;;;6.79;100.00
47913;BME280;33676;51.006;17.180;2024-02-21T02:13:51;100768.67;;;6.81;100.00
47913;BME280;33676;51.006;17.180;2024-02-21T02:16:20;100769.61;;;6.83;100.00
47913;BME280;33676;51.006;17.180;2024-02-21T02:18:49;100765.18;;;6.84;100.00
47913;BME280;33676;51.006;17.180;2024-02-21T02:21:30;100758.48;;;6.86;100.00
47913;BME280;33676;51.006;17.180;2024-02-21T02:24:00;100753.71;;;6.87;100.00
47913;BME280;33676;51.006;17.180;2024-02-21T02:26:29;100749.35;;;6.88;100.00
47913;BME280;33676;51.006;17.180;2024-02-21T02:28:57;100749.34;;;6.88;100.00
47913;BME280;33676;51.006;17.180;2024-02-21T02:31:26;100749.19;;;6.87;100.00
47913;BME280;33676;51.006;17.180;2024-02-21T02:33:54;100748.34;;;6.87;100.00
47913;BME280;33676;51.006;17.180;2024-02-21T02:36:23;100746.45;;;6.87;100.00
47913;BME280;33676;51.006;17.180;2024-02-21T02:38:51;100745.39;;;6.87;100.00
47913;BME280;33676;51.006;17.180;2024-02-21T02:41:20;100744.55;;;6.87;100.00
47913;BME280;33676;51.006;17.180;2024-02-21T02:43:48;100743.75;;;6.85;100.00
47913;BME280;33676;51.006;17.180;2024-02-21T02:46:17;100738.96;;;6.84;100.00
47913;BME280;33676;51.006;17.180;2024-02-21T02:48:46;100735.59;;;6.82;100.00
47913;BME280;33676;51.006;17.180;2024-02-21T02:51:14;100732.89;;;6.81;100.00
47913;BME280;33676;51.006;17.180;2024-02-21T02:53:43;100726.35;;;6.80;100.00
47913;BME280;33676;51.006;17.180;2024-02-21T02:56:17;100727.46;;;6.78;100.00
47913;BME280;33676;51.006;17.180;2024-02-21T02:58:45;100726.30;;;6.77;100.00
47913;BME280;33676;51.006;17.180;2024-02-21T03:01:14;100723.14;;;6.75;100.00
47913;BME280;33676;51.006;17.180;2024-02-21T03:03:43;100725.15;;;6.74;100.00
47913;BME280;33676;51.006;17.180;2024-02-21T03:06:14;100723.50;;;6.72;100.00
47913;BME280;33676;51.006;17.180;2024-02-21T03:08:43;100724.61;;;6.71;100.00
47913;BME280;33676;51.006;17.180;2024-02-21T03:11:11;100726.36;;;6.67;100.00
47913;BME280;33676;51.006;17.180;2024-02-21T03:13:40;100722.63;;;6.62;100.00
47913;BME280;33676;51.006;17.180;2024-02-21T03:16:09;100723.16;;;6.59;100.00
47913;BME280;33676;51.006;17.180;2024-02-21T03:18:37;100720.73;;;6.56;100.00
47913;BME280;33676;51.006;17.180;2024-02-21T03:21:06;100718.27;;;6.53;100.00
47913;BME280;33676;51.006;17.180;2024-02-21T03:23:35;100717.23;;;6.50;100.00
47913;BME280;33676;51.006;17.180;2024-02-21T03:26:04;100712.13;;;6.48;100.00
47913;BME280;33676;51.006;17.180;2024-02-21T03:28:33;100709.96;;;6.46;100.00
47913;BME280;33676;51.006;17.180;2024-02-21T03:31:02;100709.25;;;6.43;100.00
47913;BME280;33676;51.006;17.180;2024-02-21T03:33:30;100708.05;;;6.40;100.00
47913;BME280;33676;51.006;17.180;2024-02-21T03:35:59;100706.16;;;6.36;100.00
47913;BME280;33676;51.006;17.180;2024-02-21T03:38:28;100708.95;;;6.33;100.00
47913;BME280;33676;51.006;17.180;2024-02-21T03:40:57;100706.84;;;6.29;100.00
47913;BME280;33676;51.006;17.180;2024-02-21T03:43:26;100702.61;;;6.28;100.00
47913;BME280;33676;51.006;17.180;2024-02-21T03:45:54;100699.43;;;6.25;100.00
47913;BME280;33676;51.006;17.180;2024-02-21T03:48:23;100701.17;;;6.23;100.00
47913;BME280;33676;51.006;17.180;2024-02-21T03:50:52;100700.90;;;6.21;100.00
47913;BME280;33676;51.006;17.180;2024-02-21T03:53:20;100701.89;;;6.19;100.00
47913;BME280;33676;51.006;17.180;2024-02-21T03:55:49;100700.49;;;6.19;100.00
47913;BME280;33676;51.006;17.180;2024-02-21T03:58:17;100694.27;;;6.19;100.00
47913;BME280;33676;51.006;17.180;2024-02-21T04:00:46;100692.91;;;6.18;100.00
47913;BME280;33676;51.006;17.180;2024-02-21T04:03:15;100694.14;;;6.18;100.00
47913;BME280;33676;51.006;17.180;2024-02-21T04:05:43;100694.57;;;6.19;100.00
47913;BME280;33676;51.006;17.180;2024-02-21T04:08:12;100696.38;;;6.22;100.00
47913;BME280;33676;51.006;17.180;2024-02-21T04:10:40;100697.23;;;6.22;100.00
47913;BME280;33676;51.006;17.180;2024-02-21T04:13:09;100694.92;;;6.23;100.00
47913;BME280;33676;51.006;17.180;2024-02-21T04:15:38;100695.25;;;6.23;100.00
47913;BME280;33676;51.006;17.180;2024-02-21T04:18:06;100690.40;;;6.23;100.00
47913;BME280;33676;51.006;17.180;2024-02-21T04:20:35;100685.24;;;6.22;100.00
47913;BME280;33676;51.006;17.180;2024-02-21T04:23:04;100680.76;;;6.21;100.00
47913;BME280;33676;51.006;17.180;2024-02-21T04:25:32;100677.43;;;6.22;100.00
47913;BME280;33676;51.006;17.180;2024-02-21T04:28:01;100675.69;;;6.22;100.00
47913;BME280;33676;51.006;17.180;2024-02-21T04:30:29;100668.88;;;6.23;100.00
47913;BME280;33676;51.006;17.180;2024-02-21T04:32:58;100667.77;;;6.24;100.00
47913;BME280;33676;51.006;17.180;2024-02-21T04:35:26;100665.24;;;6.25;100.00
47913;BME280;33676;51.006;17.180;2024-02-21T04:37:55;100666.80;;;6.25;100.00
47913;BME280;33676;51.006;17.180;2024-02-21T04:40:24;100662.44;;;6.26;100.00
47913;BME280;33676;51.006;17.180;2024-02-21T04:42:52;100666.19;;;6.27;100.00
47913;BME280;33676;51.006;17.180;2024-02-21T04:45:21;100657.98;;;6.28;100.00
47913;BME280;33676;51.006;17.180;2024-02-21T04:47:49;100656.98;;;6.27;100.00
47913;BME280;33676;51.006;17.180;2024-02-21T04:50:18;100658.39;;;6.27;100.00
47913;BME280;33676;51.006;17.180;2024-02-21T04:52:47;100657.35;;;6.27;100.00
47913;BME280;33676;51.006;17.180;2024-02-21T04:55:15;100656.42;;;6.28;100.00
47913;BME280;33676;51.006;17.180;2024-02-21T04:57:44;100653.81;;;6.28;100.00
47913;BME280;33676;51.006;17.180;2024-02-21T05:00:13;100650.95;;;6.29;100.00
47913;BME280;33676;51.006;17.180;2024-02-21T05:02:41;100648.45;;;6.31;100.00
47913;BME280;33676;51.006;17.180;2024-02-21T05:05:10;100647.90;;;6.31;100.00
47913;BME280;33676;51.006;17.180;2024-02-21T05:07:39;100646.67;;;6.32;100.00
47913;BME280;33676;51.006;17.180;2024-02-21T05:10:08;100647.80;;;6.33;100.00
47913;BME280;33676;51.006;17.180;2024-02-21T05:12:38;100647.91;;;6.34;100.00
47913;BME280;33676;51.006;17.180;2024-02-21T05:15:06;100644.57;;;6.35;100.00
47913;BME280;33676;51.006;17.180;2024-02-21T05:17:35;100637.78;;;6.36;100.00
47913;BME280;33676;51.006;17.180;2024-02-21T05:20:05;100638.79;;;6.36;100.00
47913;BME280;33676;51.006;17.180;2024-02-21T05:22:34;100637.86;;;6.37;100.00
47913;BME280;33676;51.006;17.180;2024-02-21T05:25:03;100635.03;;;6.38;100.00
47913;BME280;33676;51.006;17.180;2024-02-21T05:27:31;100636.86;;;6.40;100.00
47913;BME280;33676;51.006;17.180;2024-02-21T05:30:00;100637.35;;;6.40;100.00
47913;BME280;33676;51.006;17.180;2024-02-21T05:32:28;100638.91;;;6.40;100.00
47913;BME280;33676;51.006;17.180;2024-02-21T05:34:57;100637.14;;;6.41;100.00
47913;BME280;33676;51.006;17.180;2024-02-21T05:37:27;100636.23;;;6.42;100.00
47913;BME280;33676;51.006;17.180;2024-02-21T05:39:55;100635.17;;;6.42;100.00
47913;BME280;33676;51.006;17.180;2024-02-21T05:42:24;100629.09;;;6.42;100.00
47913;BME280;33676;51.006;17.180;2024-02-21T05:44:52;100628.56;;;6.42;100.00
47913;BME280;33676;51.006;17.180;2024-02-21T05:47:21;100625.98;;;6.42;100.00
47913;BME280;33676;51.006;17.180;2024-02-21T05:49:49;100623.38;;;6.42;100.00
47913;BME280;33676;51.006;17.180;2024-02-21T05:52:21;100623.77;;;6.41;100.00
47913;BME280;33676;51.006;17.180;2024-02-21T05:54:50;100619.56;;;6.42;100.00
47913;BME280;33676;51.006;17.180;2024-02-21T05:57:19;100620.97;;;6.41;100.00
47913;BME280;33676;51.006;17.180;2024-02-21T05:59:48;100616.30;;;6.41;100.00
47913;BME280;33676;51.006;17.180;2024-02-21T06:02:17;100613.12;;;6.42;100.00
47913;BME280;33676;51.006;17.180;2024-02-21T06:04:46;100615.58;;;6.45;100.00
47913;BME280;33676;51.006;17.180;2024-02-21T06:07:15;100612.88;;;6.46;100.00
47913;BME280;33676;51.006;17.180;2024-02-21T06:09:44;100612.91;;;6.49;100.00
47913;BME280;33676;51.006;17.180;2024-02-21T06:12:13;100614.21;;;6.50;100.00
47913;BME280;33676;51.006;17.180;2024-02-21T06:14:44;100614.30;;;6.52;100.00
47913;BME280;33676;51.006;17.180;2024-02-21T06:17:13;100614.35;;;6.54;100.00
47913;BME280;33676;51.006;17.180;2024-02-21T06:19:43;100619.31;;;6.55;100.00
47913;BME280;33676;51.006;17.180;2024-02-21T06:22:12;100620.30;;;6.57;100.00
47913;BME280;33676;51.006;17.180;2024-02-21T06:24:41;100623.94;;;6.60;100.00
47913;BME280;33676;51.006;17.180;2024-02-21T06:27:11;100619.89;;;6.61;100.00
47913;BME280;33676;51.006;17.180;2024-02-21T06:29:42;100620.39;;;6.64;100.00
47913;BME280;33676;51.006;17.180;2024-02-21T06:32:11;100619.20;;;6.67;100.00
47913;BME280;33676;51.006;17.180;2024-02-21T06:34:40;100617.13;;;6.70;100.00
47913;BME280;33676;51.006;17.180;2024-02-21T06:37:09;100615.79;;;6.72;100.00
47913;BME280;33676;51.006;17.180;2024-02-21T06:39:38;100611.71;;;6.73;100.00
47913;BME280;33676;51.006;17.180;2024-02-21T06:42:09;100611.88;;;6.76;100.00
47913;BME280;33676;51.006;17.180;2024-02-21T06:44:37;100607.88;;;6.79;100.00
47913;BME280;33676;51.006;17.180;2024-02-21T06:47:09;100611.69;;;6.82;100.00
47913;BME280;33676;51.006;17.180;2024-02-21T06:49:37;100614.01;;;6.84;100.00
47913;BME280;33676;51.006;17.180;2024-02-21T06:52:06;100618.61;;;6.86;100.00
47913;BME280;33676;51.006;17.180;2024-02-21T06:54:36;100615.65;;;6.86;100.00
47913;BME280;33676;51.006;17.180;2024-02-21T06:57:08;100618.83;;;6.88;100.00
47913;BME280;33676;51.006;17.180;2024-02-21T06:59:36;100616.27;;;6.91;100.00
47913;BME280;33676;51.006;17.180;2024-02-21T07:02:06;100615.38;;;6.91;100.00
47913;BME280;33676;51.006;17.180;2024-02-21T07:04:35;100616.73;;;6.77;100.00
47913;BME280;33676;51.006;17.180;2024-02-21T07:07:05;100619.16;;;6.58;100.00
47913;BME280;33676;51.006;17.180;2024-02-21T07:09:35;100618.16;;;6.39;100.00
47913;BME280;33676;51.006;17.180;2024-02-21T07:12:07;100614.98;;;6.27;100.00
47913;BME280;33676;51.006;17.180;2024-02-21T07:14:38;100612.48;;;6.22;100.00
47913;BME280;33676;51.006;17.180;2024-02-21T07:17:08;100609.54;;;6.31;100.00
47913;BME280;33676;51.006;17.180;2024-02-21T07:19:40;100610.93;;;6.44;100.00
47913;BME280;33676;51.006;17.180;2024-02-21T07:22:09;100607.15;;;6.55;100.00
47913;BME280;33676;51.006;17.180;2024-02-21T07:24:38;100603.55;;;6.67;100.00
47913;BME280;33676;51.006;17.180;2024-02-21T07:27:07;100600.73;;;6.80;100.00
47913;BME280;33676;51.006;17.180;2024-02-21T07:29:36;100601.96;;;6.91;100.00
47913;BME280;33676;51.006;17.180;2024-02-21T07:32:06;100605.80;;;7.03;100.00
47913;BME280;33676;51.006;17.180;2024-02-21T07:34:35;100602.70;;;7.15;100.00
47913;BME280;33676;51.006;17.180;2024-02-21T07:37:04;100602.80;;;7.25;100.00
47913;BME280;33676;51.006;17.180;2024-02-21T07:39:36;100603.51;;;7.33;100.00
47913;BME280;33676;51.006;17.180;2024-02-21T07:42:08;100602.70;;;7.41;100.00
47913;BME280;33676;51.006;17.180;2024-02-21T07:44:36;100602.36;;;7.46;100.00
47913;BME280;33676;51.006;17.180;2024-02-21T07:47:06;100596.13;;;7.52;100.00
47913;BME280;33676;51.006;17.180;2024-02-21T07:49:44;100594.09;;;7.57;100.00
47913;BME280;33676;51.006;17.180;2024-02-21T07:52:14;100595.16;;;7.62;100.00
47913;BME280;33676;51.006;17.180;2024-02-21T07:54:43;100592.74;;;7.68;100.00
47913;BME280;33676;51.006;17.180;2024-02-21T07:57:14;100592.78;;;7.72;100.00
47913;BME280;33676;51.006;17.180;2024-02-21T07:59:44;100589.41;;;7.79;100.00
47913;BME280;33676;51.006;17.180;2024-02-21T08:02:14;100589.40;;;7.87;100.00
47913;BME280;33676;51.006;17.180;2024-02-21T08:04:44;100583.77;;;7.94;100.00
47913;BME280;33676;51.006;17.180;2024-02-21T08:07:15;100584.25;;;8.01;100.00
47913;BME280;33676;51.006;17.180;2024-02-21T08:09:45;100578.05;;;8.05;100.00
47913;BME280;33676;51.006;17.180;2024-02-21T08:12:13;100570.54;;;8.08;100.00
47913;BME280;33676;51.006;17.180;2024-02-21T08:14:42;100571.64;;;8.13;100.00
47913;BME280;33676;51.006;17.180;2024-02-21T08:17:12;100568.74;;;8.17;100.00
47913;BME280;33676;51.006;17.180;2024-02-21T08:19:41;100568.23;;;8.20;100.00
47913;BME280;33676;51.006;17.180;2024-02-21T08:22:10;100565.77;;;8.22;100.00
47913;BME280;33676;51.006;17.180;2024-02-21T08:24:41;100563.81;;;8.26;100.00
47913;BME280;33676;51.006;17.180;2024-02-21T08:27:11;100561.53;;;8.29;100.00
47913;BME280;33676;51.006;17.180;2024-02-21T08:29:41;100556.70;;;8.31;100.00
47913;BME280;33676;51.006;17.180;2024-02-21T08:32:12;100557.11;;;8.33;100.00
47913;BME280;33676;51.006;17.180;2024-02-21T08:34:42;100556.69;;;8.34;100.00
47913;BME280;33676;51.006;17.180;2024-02-21T08:37:13;100556.61;;;8.35;100.00
47913;BME280;33676;51.006;17.180;2024-02-21T08:39:44;100551.82;;;8.39;100.00
47913;BME280;33676;51.006;17.180;2024-02-21T08:42:14;100552.56;;;8.44;100.00
47913;BME280;33676;51.006;17.180;2024-02-21T08:44:44;100546.25;;;8.47;100.00
47913;BME280;33676;51.006;17.180;2024-02-21T08:47:16;100548.30;;;8.51;100.00
47913;BME280;33676;51.006;17.180;2024-02-21T08:49:45;100549.05;;;8.53;100.00
47913;BME280;33676;51.006;17.180;2024-02-21T08:52:15;100545.83;;;8.56;100.00
47913;BME280;33676;51.006;17.180;2024-02-21T08:54:46;100545.92;;;8.60;100.00
47913;BME280;33676;51.006;17.180;2024-02-21T08:57:14;100543.66;;;8.63;100.00
47913;BME280;33676;51.006;17.180;2024-02-21T08:59:43;100542.66;;;8.68;100.00
47913;BME280;33676;51.006;17.180;2024-02-21T09:02:14;100539.60;;;8.72;100.00
47913;BME280;33676;51.006;17.180;2024-02-21T09:04:48;100539.06;;;8.75;100.00
47913;BME280;33676;51.006;17.180;2024-02-21T09:07:18;100538.58;;;8.80;100.00
47913;BME280;33676;51.006;17.180;2024-02-21T09:09:47;100541.30;;;8.85;100.00
47913;BME280;33676;51.006;17.180;2024-02-21T09:12:18;100539.15;;;8.91;100.00
47913;BME280;33676;51.006;17.180;2024-02-21T09:14:48;100543.81;;;9.00;100.00
47913;BME280;33676;51.006;17.180;2024-02-21T09:17:21;100541.69;;;9.06;100.00
47913;BME280;33676;51.006;17.180;2024-02-21T09:19:52;100541.69;;;9.11;100.00
47913;BME280;33676;51.006;17.180;2024-02-21T09:22:22;100541.23;;;9.12;100.00
47913;BME280;33676;51.006;17.180;2024-02-21T09:24:52;100539.44;;;9.13;100.00
47913;BME280;33676;51.006;17.180;2024-02-21T09:27:22;100545.27;;;9.14;100.00
47913;BME280;33676;51.006;17.180;2024-02-21T09:29:53;100543.73;;;9.14;100.00
47913;BME280;33676;51.006;17.180;2024-02-21T09:32:22;100536.77;;;9.14;100.00
47913;BME280;33676;51.006;17.180;2024-02-21T09:34:54;100533.94;;;9.17;100.00
47913;BME280;33676;51.006;17.180;2024-02-21T09:37:29;100536.84;;;9.20;100.00
47913;BME280;33676;51.006;17.180;2024-02-21T09:39:58;100536.30;;;9.23;100.00
47913;BME280;33676;51.006;17.180;2024-02-21T09:42:38;100537.94;;;9.25;100.00
47913;BME280;33676;51.006;17.180;2024-02-21T09:45:19;100535.78;;;9.26;100.00
47913;BME280;33676;51.006;17.180;2024-02-21T09:48:19;100534.84;;;9.26;100.00
47913;BME280;33676;51.006;17.180;2024-02-21T09:50:53;100530.38;;;9.28;100.00
47913;BME280;33676;51.006;17.180;2024-02-21T09:53:24;100533.90;;;9.30;100.00
47913;BME280;33676;51.006;17.180;2024-02-21T09:55:55;100537.00;;;9.34;100.00
47913;BME280;33676;51.006;17.180;2024-02-21T09:58:26;100532.98;;;9.38;100.00
47913;BME280;33676;51.006;17.180;2024-02-21T10:00:57;100529.48;;;9.43;100.00
47913;BME280;33676;51.006;17.180;2024-02-21T10:03:29;100525.34;;;9.50;100.00
47913;BME280;33676;51.006;17.180;2024-02-21T10:05:59;100519.81;;;9.57;100.00
47913;BME280;33676;51.006;17.180;2024-02-21T10:08:29;100520.95;;;9.63;100.00
47913;BME280;33676;51.006;17.180;2024-02-21T10:11:00;100521.25;;;9.66;100.00
47913;BME280;33676;51.006;17.180;2024-02-21T10:13:32;100523.02;;;9.69;100.00
47913;BME280;33676;51.006;17.180;2024-02-21T10:16:07;100518.95;;;9.67;100.00
47913;BME280;33676;51.006;17.180;2024-02-21T10:18:37;100518.05;;;9.65;100.00
47913;BME280;33676;51.006;17.180;2024-02-21T10:21:08;100520.66;;;9.62;100.00
47913;BME280;33676;51.006;17.180;2024-02-21T10:27:50;100525.44;;;9.56;100.00
47913;BME280;33676;51.006;17.180;2024-02-21T10:31:30;100522.73;;;9.47;100.00
47913;BME280;33676;51.006;17.180;2024-02-21T10:35:04;100519.28;;;9.37;100.00
47913;BME280;33676;51.006;17.180;2024-02-21T10:37:39;100520.08;;;9.31;100.00
47913;BME280;33676;51.006;17.180;2024-02-21T10:40:11;100519.85;;;9.26;100.00
47913;BME280;33676;51.006;17.180;2024-02-21T10:42:41;100519.67;;;9.24;100.00
47913;BME280;33676;51.006;17.180;2024-02-21T10:45:20;100522.11;;;9.21;100.00
47913;BME280;33676;51.006;17.180;2024-02-21T10:48:17;100517.27;;;9.18;100.00
47913;BME280;33676;51.006;17.180;2024-02-21T10:51:19;100516.59;;;9.18;100.00
47913;BME280;33676;51.006;17.180;2024-02-21T10:54:23;100509.80;;;9.20;100.00
47913;BME280;33676;51.006;17.180;2024-02-21T10:57:17;100501.49;;;9.27;100.00
47913;BME280;33676;51.006;17.180;2024-02-21T11:00:24;100496.36;;;9.38;100.00
47913;BME280;33676;51.006;17.180;2024-02-21T11:03:10;100491.70;;;9.40;100.00
47913;BME280;33676;51.006;17.180;2024-02-21T11:05:39;100479.52;;;9.44;100.00
47913;BME280;33676;51.006;17.180;2024-02-21T11:08:37;100477.79;;;9.49;100.00
47913;BME280;33676;51.006;17.180;2024-02-21T11:11:34;100472.21;;;9.54;100.00
47913;BME280;33676;51.006;17.180;2024-02-21T11:14:18;100468.02;;;9.59;100.00
47913;BME280;33676;51.006;17.180;2024-02-21T11:17:18;100464.82;;;9.62;100.00
47913;BME280;33676;51.006;17.180;2024-02-21T11:20:18;100459.77;;;9.67;100.00
47913;BME280;33676;51.006;17.180;2024-02-21T11:23:31;100454.75;;;9.69;100.00
47913;BME280;33676;51.006;17.180;2024-02-21T11:27:11;100456.17;;;9.68;100.00
47913;BME280;33676;51.006;17.180;2024-02-21T11:29:47;100451.44;;;9.71;100.00
47913;BME280;33676;51.006;17.180;2024-02-21T11:32:20;100448.64;;;9.76;100.00
47913;BME280;33676;51.006;17.180;2024-02-21T11:34:59;100448.11;;;9.81;100.00
47913;BME280;33676;51.006;17.180;2024-02-21T11:37:33;100446.94;;;9.83;100.00
47913;BME280;33676;51.006;17.180;2024-02-21T11:40:03;100438.77;;;9.85;100.00
47913;BME280;33676;51.006;17.180;2024-02-21T11:42:32;100434.39;;;9.89;100.00
47913;BME280;33676;51.006;17.180;2024-02-21T11:45:01;100435.27;;;9.94;100.00
47913;BME280;33676;51.006;17.180;2024-02-21T11:47:30;100427.84;;;9.95;100.00
47913;BME280;33676;51.006;17.180;2024-02-21T11:49:58;100422.20;;;10.01;100.00
47913;BME280;33676;51.006;17.180;2024-02-21T11:52:29;100414.14;;;10.08;100.00
47913;BME280;33676;51.006;17.180;2024-02-21T11:55:00;100408.68;;;10.21;100.00
47913;BME280;33676;51.006;17.180;2024-02-21T11:57:39;100412.58;;;10.37;100.00
47913;BME280;33676;51.006;17.180;2024-02-21T12:00:18;100413.10;;;10.50;100.00
47913;BME280;33676;51.006;17.180;2024-02-21T12:02:49;100413.67;;;10.59;100.00
47913;BME280;33676;51.006;17.180;2024-02-21T12:05:20;100411.33;;;10.67;100.00
47913;BME280;33676;51.006;17.180;2024-02-21T12:07:51;100410.38;;;10.70;100.00
47913;BME280;33676;51.006;17.180;2024-02-21T12:10:22;100408.05;;;10.71;100.00
47913;BME280;33676;51.006;17.180;2024-02-21T12:12:53;100405.11;;;10.68;100.00
47913;BME280;33676;51.006;17.180;2024-02-21T12:15:28;100401.00;;;10.65;100.00
47913;BME280;33676;51.006;17.180;2024-02-21T12:17:57;100402.90;;;10.60;100.00
47913;BME280;33676;51.006;17.180;2024-02-21T12:20:28;100398.58;;;10.57;100.00
47913;BME280;33676;51.006;17.180;2024-02-21T12:23:00;100395.58;;;10.55;100.00
47913;BME280;33676;51.006;17.180;2024-02-21T12:25:31;100384.11;;;10.57;100.00
47913;BME280;33676;51.006;17.180;2024-02-21T12:28:01;100378.92;;;10.63;100.00
47913;BME280;33676;51.006;17.180;2024-02-21T12:30:36;100370.95;;;10.72;100.00
47913;BME280;33676;51.006;17.180;2024-02-21T12:33:10;100364.99;;;10.78;100.00
47913;BME280;33676;51.006;17.180;2024-02-21T12:35:41;100360.71;;;10.86;100.00
47913;BME280;33676;51.006;17.180;2024-02-21T12:38:12;100352.85;;;10.92;100.00
47913;BME280;33676;51.006;17.180;2024-02-21T12:40:43;100351.42;;;11.02;100.00
47913;BME280;33676;51.006;17.180;2024-02-21T12:43:13;100351.85;;;11.14;100.00
47913;BME280;33676;51.006;17.180;2024-02-21T12:45:46;100346.92;;;11.28;100.00
47913;BME280;33676;51.006;17.180;2024-02-21T12:48:16;100344.80;;;11.37;100.00
47913;BME280;33676;51.006;17.180;2024-02-21T12:50:50;100337.92;;;11.39;100.00
47913;BME280;33676;51.006;17.180;2024-02-21T12:53:30;100332.80;;;11.38;100.00
47913;BME280;33676;51.006;17.180;2024-02-21T12:56:02;100329.75;;;11.35;100.00
47913;BME280;33676;51.006;17.180;2024-02-21T12:58:34;100329.38;;;11.31;100.00
47913;BME280;33676;51.006;17.180;2024-02-21T13:01:04;100326.05;;;11.23;100.00
47913;BME280;33676;51.006;17.180;2024-02-21T13:03:35;100320.06;;;11.17;100.00
47913;BME280;33676;51.006;17.180;2024-02-21T13:06:06;100311.91;;;11.14;100.00